sensor_id;sensor_type;location;lat;lon;timestamp;pressure;altitude;pressure_sealevel;temperature;humidity
35892;BME280;21993;42.672;23.296;2023-07-29T00:00:40;94581.31;;;23.50;47.33
35892;BME280;21993;42.672;23.296;2023-07-29T00:03:05;94578.03;;;23.48;47.53
35892;BME280;21993;42.672;23.296;2023-07-29T00:05:31;94572.91;;;23.46;47.08
35892;BME280;21993;42.672;23.296;2023-07-29T00:07:56;94574.13;;;23.44;47.37
35892;BME280;21993;42.672;23.296;2023-07-29T00:10:22;94587.53;;;23.44;47.10
35892;BME280;21993;42.672;23.296;2023-07-29T00:12:47;94581.34;;;23.43;47.06
35892;BME280;21993;42.672;23.296;2023-07-29T00:15:12;94590.66;;;23.41;47.48
35892;BME280;21993;42.672;23.296;2023-07-29T00:17:38;94587.38;;;23.39;47.13
35892;BME280;21993;42.672;23.296;2023-07-29T00:20:05;94580.78;;;23.35;46.91
35892;BME280;21993;42.672;23.296;2023-07-29T00:22:31;94574.84;;;23.33;46.71
35892;BME280;21993;42.672;23.296;2023-07-29T00:24:56;94582.69;;;23.27;46.65
35892;BME280;21993;42.672;23.296;2023-07-29T00:27:23;94566.84;;;23.26;46.90
35892;BME280;21993;42.672;23.296;2023-07-29T00:29:49;94570.78;;;23.23;47.17
35892;BME280;21993;42.672;23.296;2023-07-29T00:32:14;94574.72;;;23.21;46.86
35892;BME280;21993;42.672;23.296;2023-07-29T00:34:40;94568.53;;;23.20;46.92
35892;BME280;21993;42.672;23.296;2023-07-29T00:37:05;94567.34;;;23.16;47.28
35892;BME280;21993;42.672;23.296;2023-07-29T00:39:31;94576.00;;;23.12;47.28
35892;BME280;21993;42.672;23.296;2023-07-29T00:41:57;94582.00;;;23.14;47.22
35892;BME280;21993;42.672;23.296;2023-07-29T00:44:23;94575.00;;;23.13;47.55
35892;BME280;21993;42.672;23.296;2023-07-29T00:46:50;94571.09;;;23.09;47.47
35892;BME280;21993;42.672;23.296;2023-07-29T00:49:17;94565.72;;;23.09;47.83
35892;BME280;21993;42.672;23.296;2023-07-29T00:51:42;94564.53;;;23.05;47.54
35892;BME280;21993;42.672;23.296;2023-07-29T00:54:08;94569.06;;;23.04;47.46
35892;BME280;21993;42.672;23.296;2023-07-29T00:56:34;94567.63;;;23.01;47.73
35892;BME280;21993;42.672;23.296;2023-07-29T00:59:01;94568.06;;;22.98;47.32
35892;BME280;21993;42.672;23.296;2023-07-29T01:01:28;94566.44;;;22.97;47.66
35892;BME280;21993;42.672;23.296;2023-07-29T01:03:54;94564.16;;;22.94;47.18
35892;BME280;21993;42.672;23.296;2023-07-29T01:14:47;94562.19;;;22.76;47.33
35892;BME280;21993;42.672;23.296;2023-07-29T01:17:22;94562.81;;;22.79;47.62
35892;BME280;21993;42.672;23.296;2023-07-29T01:22:20;94557.28;;;22.73;47.76
35892;BME280;21993;42.672;23.296;2023-07-29T01:24:46;94562.22;;;22.70;47.95
35892;BME280;21993;42.672;23.296;2023-07-29T01:27:11;94565.09;;;22.68;48.07
35892;BME280;21993;42.672;23.296;2023-07-29T01:29:37;94561.38;;;22.69;48.06
35892;BME280;21993;42.672;23.296;2023-07-29T01:32:11;94565.53;;;22.65;47.73
35892;BME280;21993;42.672;23.296;2023-07-29T01:37:45;94562.28;;;22.57;48.09
35892;BME280;21993;42.672;23.296;2023-07-29T01:40:13;94571.97;;;22.51;48.03
35892;BME280;21993;42.672;23.296;2023-07-29T01:42:39;94556.75;;;22.52;48.53
35892;BME280;21993;42.672;23.296;2023-07-29T01:45:05;94566.47;;;22.46;49.07
35892;BME280;21993;42.672;23.296;2023-07-29T01:47:30;94559.25;;;22.46;49.18
35892;BME280;21993;42.672;23.296;2023-07-29T01:49:56;94564.38;;;22.48;49.75
35892;BME280;21993;42.672;23.296;2023-07-29T01:52:21;94561.13;;;22.46;49.49
35892;BME280;21993;42.672;23.296;2023-07-29T01:54:47;94557.19;;;22.42;49.85
35892;BME280;21993;42.672;23.296;2023-07-29T01:57:13;94557.63;;;22.39;49.92
35892;BME280;21993;42.672;23.296;2023-07-29T01:59:38;94558.69;;;22.38;50.25
35892;BME280;21993;42.672;23.296;2023-07-29T02:02:04;94564.88;;;22.32;50.32
35892;BME280;21993;42.672;23.296;2023-07-29T02:04:29;94556.63;;;22.33;50.42
35892;BME280;21993;42.672;23.296;2023-07-29T02:06:54;94563.63;;;22.28;50.26
35892;BME280;21993;42.672;23.296;2023-07-29T02:09:20;94565.31;;;22.22;50.73
35892;BME280;21993;42.672;23.296;2023-07-29T02:11:45;94559.53;;;22.18;50.44
35892;BME280;21993;42.672;23.296;2023-07-29T02:14:11;94571.50;;;22.16;51.05
35892;BME280;21993;42.672;23.296;2023-07-29T02:16:36;94571.94;;;22.13;50.33
35892;BME280;21993;42.672;23.296;2023-07-29T02:19:02;94576.84;;;22.09;50.55
35892;BME280;21993;42.672;23.296;2023-07-29T02:21:28;94578.06;;;22.07;50.09
35892;BME280;21993;42.672;23.296;2023-07-29T02:23:53;94579.72;;;22.01;50.40
35892;BME280;21993;42.672;23.296;2023-07-29T02:26:19;94577.69;;;22.03;50.48
35892;BME280;21993;42.672;23.296;2023-07-29T02:28:44;94577.06;;;22.08;50.91
35892;BME280;21993;42.672;23.296;2023-07-29T02:31:15;94582.19;;;22.03;51.01
35892;BME280;21993;42.672;23.296;2023-07-29T02:33:41;94573.97;;;21.98;51.52
35892;BME280;21993;42.672;23.296;2023-07-29T02:36:11;94571.31;;;21.91;52.17
35892;BME280;21993;42.672;23.296;2023-07-29T02:38:37;94578.50;;;21.90;51.85
35892;BME280;21993;42.672;23.296;2023-07-29T02:41:03;94569.88;;;21.88;52.30
35892;BME280;21993;42.672;23.296;2023-07-29T02:43:28;94576.66;;;21.84;51.99
35892;BME280;21993;42.672;23.296;2023-07-29T02:45:53;94573.38;;;21.82;51.70
35892;BME280;21993;42.672;23.296;2023-07-29T02:48:19;94571.53;;;21.83;51.71
35892;BME280;21993;42.672;23.296;2023-07-29T02:50:44;94577.09;;;21.81;51.57
35892;BME280;21993;42.672;23.296;2023-07-29T02:53:10;94575.44;;;21.80;52.03
35892;BME280;21993;42.672;23.296;2023-07-29T02:55:35;94570.94;;;21.74;52.43
35892;BME280;21993;42.672;23.296;2023-07-29T02:58:00;94573.00;;;21.72;52.01
35892;BME280;21993;42.672;23.296;2023-07-29T03:00:26;94580.59;;;21.69;52.29
35892;BME280;21993;42.672;23.296;2023-07-29T03:02:51;94577.53;;;21.65;52.59
35892;BME280;21993;42.672;23.296;2023-07-29T03:05:16;94586.13;;;21.60;52.26
35892;BME280;21993;42.672;23.296;2023-07-29T03:07:42;94587.59;;;21.63;51.70
35892;BME280;21993;42.672;23.296;2023-07-29T03:10:08;94584.72;;;21.64;52.16
35892;BME280;21993;42.672;23.296;2023-07-29T03:12:33;94590.28;;;21.63;52.49
35892;BME280;21993;42.672;23.296;2023-07-29T03:14:59;94597.03;;;21.59;52.94
35892;BME280;21993;42.672;23.296;2023-07-29T03:17:25;94600.13;;;21.56;52.54
35892;BME280;21993;42.672;23.296;2023-07-29T03:19:51;94583.50;;;21.54;52.71
35892;BME280;21993;42.672;23.296;2023-07-29T03:22:17;94588.03;;;21.53;52.45
35892;BME280;21993;42.672;23.296;2023-07-29T03:24:42;94586.34;;;21.52;52.49
35892;BME280;21993;42.672;23.296;2023-07-29T03:27:08;94595.59;;;21.50;52.89
35892;BME280;21993;42.672;23.296;2023-07-29T03:29:35;94594.78;;;21.49;52.95
35892;BME280;21993;42.672;23.296;2023-07-29T03:32:00;94598.28;;;21.50;52.78
35892;BME280;21993;42.672;23.296;2023-07-29T03:34:26;94591.28;;;21.49;52.78
35892;BME280;21993;42.672;23.296;2023-07-29T03:36:51;94588.84;;;21.47;52.77
35892;BME280;21993;42.672;23.296;2023-07-29T03:39:16;94593.56;;;21.45;52.71
35892;BME280;21993;42.672;23.296;2023-07-29T03:41:42;94591.09;;;21.37;53.02
35892;BME280;21993;42.672;23.296;2023-07-29T03:44:07;94597.06;;;21.39;53.28
35892;BME280;21993;42.672;23.296;2023-07-29T03:46:33;94598.06;;;21.38;53.19
35892;BME280;21993;42.672;23.296;2023-07-29T03:48:58;94596.63;;;21.35;53.70
35892;BME280;21993;42.672;23.296;2023-07-29T03:51:24;94597.06;;;21.39;53.72
35892;BME280;21993;42.672;23.296;2023-07-29T03:53:50;94587.19;;;21.40;53.32
35892;BME280;21993;42.672;23.296;2023-07-29T03:56:15;94588.22;;;21.39;53.67
35892;BME280;21993;42.672;23.296;2023-07-29T03:58:41;94590.28;;;21.37;53.78
35892;BME280;21993;42.672;23.296;2023-07-29T04:01:06;94588.22;;;21.39;53.92
35892;BME280;21993;42.672;23.296;2023-07-29T04:03:33;94590.28;;;21.37;54.06
35892;BME280;21993;42.672;23.296;2023-07-29T04:05:59;94597.66;;;21.34;53.90
35892;BME280;21993;42.672;23.296;2023-07-29T04:08:24;94603.00;;;21.34;54.18
35892;BME280;21993;42.672;23.296;2023-07-29T04:10:50;94604.03;;;21.33;54.06
35892;BME280;21993;42.672;23.296;2023-07-29T04:13:15;94609.59;;;21.39;54.05
35892;BME280;21993;42.672;23.296;2023-07-29T04:15:41;94613.91;;;21.40;53.51
35892;BME280;21993;42.672;23.296;2023-07-29T04:18:06;94600.75;;;21.38;53.64
35892;BME280;21993;42.672;23.296;2023-07-29T04:20:31;94599.50;;;21.41;53.87
35892;BME280;21993;42.672;23.296;2023-07-29T04:22:58;94598.06;;;21.38;53.60
35892;BME280;21993;42.672;23.296;2023-07-29T04:25:24;94597.19;;;21.24;54.50
35892;BME280;21993;42.672;23.296;2023-07-29T04:27:49;94606.91;;;21.32;53.96
35892;BME280;21993;42.672;23.296;2023-07-29T04:30:15;94603.63;;;21.37;53.52
35892;BME280;21993;42.672;23.296;2023-07-29T04:32:40;94609.78;;;21.30;54.05
35892;BME280;21993;42.672;23.296;2023-07-29T04:35:08;94606.91;;;21.32;53.87
35892;BME280;21993;42.672;23.296;2023-07-29T04:37:34;94614.09;;;21.31;53.95
35892;BME280;21993;42.672;23.296;2023-07-29T04:39:59;94608.50;;;21.26;54.00
35892;BME280;21993;42.672;23.296;2023-07-29T04:42:24;94610.97;;;21.15;54.53
35892;BME280;21993;42.672;23.296;2023-07-29T04:44:50;94611.78;;;21.15;54.75
35892;BME280;21993;42.672;23.296;2023-07-29T04:47:15;94611.78;;;21.22;54.39
35892;BME280;21993;42.672;23.296;2023-07-29T04:49:41;94608.72;;;21.25;54.42
35892;BME280;21993;42.672;23.296;2023-07-29T04:52:06;94608.91;;;21.23;54.66
35892;BME280;21993;42.672;23.296;2023-07-29T04:54:32;94614.91;;;21.32;54.49
35892;BME280;21993;42.672;23.296;2023-07-29T04:56:57;94618.41;;;21.32;54.52
35892;BME280;21993;42.672;23.296;2023-07-29T04:59:22;94621.50;;;21.36;54.34
35892;BME280;21993;42.672;23.296;2023-07-29T05:01:48;94625.19;;;21.42;53.99
35892;BME280;21993;42.672;23.296;2023-07-29T05:04:14;94621.50;;;21.43;54.04
35892;BME280;21993;42.672;23.296;2023-07-29T05:06:40;94613.28;;;21.44;53.40
35892;BME280;21993;42.672;23.296;2023-07-29T05:09:14;94623.97;;;21.57;52.45
35892;BME280;21993;42.672;23.296;2023-07-29T05:11:40;94633.41;;;21.47;52.41
35892;BME280;21993;42.672;23.296;2023-07-29T05:14:05;94631.78;;;21.39;52.48
35892;BME280;21993;42.672;23.296;2023-07-29T05:16:31;94632.59;;;21.40;53.04
35892;BME280;21993;42.672;23.296;2023-07-29T05:18:57;94641.63;;;21.52;52.77
35892;BME280;21993;42.672;23.296;2023-07-29T05:21:22;94636.91;;;21.47;52.71
35892;BME280;21993;42.672;23.296;2023-07-29T05:23:47;94642.69;;;21.44;53.27
35892;BME280;21993;42.672;23.296;2023-07-29T05:26:13;94640.81;;;21.64;52.68
35892;BME280;21993;42.672;23.296;2023-07-29T05:28:38;94643.69;;;21.83;51.83
35892;BME280;21993;42.672;23.296;2023-07-29T05:31:04;94642.47;;;21.79;52.25
35892;BME280;21993;42.672;23.296;2023-07-29T05:33:29;94637.53;;;21.89;52.40
35892;BME280;21993;42.672;23.296;2023-07-29T05:35:55;94641.63;;;21.98;51.97
35892;BME280;21993;42.672;23.296;2023-07-29T05:38:20;94633.63;;;21.91;52.53
35892;BME280;21993;42.672;23.296;2023-07-29T05:40:48;94638.13;;;21.98;52.42
35892;BME280;21993;42.672;23.296;2023-07-29T05:43:13;94641.03;;;21.83;52.97
35892;BME280;21993;42.672;23.296;2023-07-29T05:45:40;94646.97;;;21.91;52.97
35892;BME280;21993;42.672;23.296;2023-07-29T05:48:05;94647.59;;;22.00;52.83
35892;BME280;21993;42.672;23.296;2023-07-29T05:50:30;94652.75;;;22.08;52.36
35892;BME280;21993;42.672;23.296;2023-07-29T05:52:56;94648.00;;;22.10;52.45
35892;BME280;21993;42.672;23.296;2023-07-29T05:55:21;94642.66;;;22.10;52.04
35892;BME280;21993;42.672;23.296;2023-07-29T05:57:47;94646.59;;;22.14;52.39
35892;BME280;21993;42.672;23.296;2023-07-29T06:00:12;94644.09;;;22.19;52.65
35892;BME280;21993;42.672;23.296;2023-07-29T06:02:38;94648.38;;;22.34;52.28
35892;BME280;21993;42.672;23.296;2023-07-29T06:05:04;94648.75;;;22.44;51.69
35892;BME280;21993;42.672;23.296;2023-07-29T06:07:30;94638.47;;;22.54;51.34
35892;BME280;21993;42.672;23.296;2023-07-29T06:09:57;94638.97;;;22.76;50.56
35892;BME280;21993;42.672;23.296;2023-07-29T06:12:23;94640.41;;;22.85;50.65
35892;BME280;21993;42.672;23.296;2023-07-29T06:14:48;94648.41;;;22.98;50.71
35892;BME280;21993;42.672;23.296;2023-07-29T06:17:14;94644.91;;;22.98;50.60
35892;BME280;21993;42.672;23.296;2023-07-29T06:19:39;94641.72;;;23.14;49.88
35892;BME280;21993;42.672;23.296;2023-07-29T06:22:05;94633.25;;;23.17;49.28
35892;BME280;21993;42.672;23.296;2023-07-29T06:24:31;94633.44;;;23.22;49.05
35892;BME280;21993;42.672;23.296;2023-07-29T06:26:56;94634.38;;;23.35;49.14
35892;BME280;21993;42.672;23.296;2023-07-29T06:29:22;94624.06;;;23.38;48.73
35892;BME280;21993;42.672;23.296;2023-07-29T06:31:47;94629.91;;;23.53;47.86
35892;BME280;21993;42.672;23.296;2023-07-29T06:34:12;94617.22;;;23.42;48.92
35892;BME280;21993;42.672;23.296;2023-07-29T06:36:38;94625.47;;;23.41;49.24
35892;BME280;21993;42.672;23.296;2023-07-29T06:39:03;94615.50;;;23.54;49.16
35892;BME280;21993;42.672;23.296;2023-07-29T06:41:29;94621.44;;;23.63;49.31
35892;BME280;21993;42.672;23.296;2023-07-29T06:43:54;94621.19;;;23.71;48.70
35892;BME280;21993;42.672;23.296;2023-07-29T06:46:19;94614.94;;;23.96;48.05
35892;BME280;21993;42.672;23.296;2023-07-29T06:48:45;94609.00;;;23.94;47.71
35892;BME280;21993;42.672;23.296;2023-07-29T06:51:10;94611.00;;;23.80;48.71
35892;BME280;21993;42.672;23.296;2023-07-29T06:53:36;94607.63;;;23.84;48.97
35892;BME280;21993;42.672;23.296;2023-07-29T06:56:01;94622.41;;;23.94;48.56
35892;BME280;21993;42.672;23.296;2023-07-29T06:58:27;94616.41;;;24.17;48.06
35892;BME280;21993;42.672;23.296;2023-07-29T07:00:52;94615.53;;;24.23;47.87
35892;BME280;21993;42.672;23.296;2023-07-29T07:03:17;94618.25;;;24.41;47.48
35892;BME280;21993;42.672;23.296;2023-07-29T07:05:43;94611.75;;;24.30;48.09
35892;BME280;21993;42.672;23.296;2023-07-29T07:08:08;94618.34;;;24.28;48.22
35892;BME280;21993;42.672;23.296;2023-07-29T07:10:34;94609.00;;;24.37;48.01
35892;BME280;21993;42.672;23.296;2023-07-29T07:12:59;94610.97;;;24.48;47.70
35892;BME280;21993;42.672;23.296;2023-07-29T07:15:25;94613.47;;;24.61;47.23
35892;BME280;21993;42.672;23.296;2023-07-29T07:17:51;94608.94;;;24.62;47.13
35892;BME280;21993;42.672;23.296;2023-07-29T07:20:16;94606.84;;;24.64;47.77
35892;BME280;21993;42.672;23.296;2023-07-29T07:22:42;94605.78;;;24.83;46.37
35892;BME280;21993;42.672;23.296;2023-07-29T07:25:07;94611.97;;;24.84;46.85
35892;BME280;21993;42.672;23.296;2023-07-29T07:27:33;94601.97;;;24.91;45.76
35892;BME280;21993;42.672;23.296;2023-07-29T07:29:58;94601.19;;;25.02;45.70
35892;BME280;21993;42.672;23.296;2023-07-29T07:32:24;94600.09;;;25.10;45.70
35892;BME280;21993;42.672;23.296;2023-07-29T07:34:49;94597.06;;;25.18;45.62
35892;BME280;21993;42.672;23.296;2023-07-29T07:37:15;94593.72;;;25.22;45.05
35892;BME280;21993;42.672;23.296;2023-07-29T07:39:40;94589.53;;;25.38;44.39
35892;BME280;21993;42.672;23.296;2023-07-29T07:42:06;94585.72;;;25.58;44.24
35892;BME280;21993;42.672;23.296;2023-07-29T07:44:31;94584.69;;;25.59;44.55
35892;BME280;21993;42.672;23.296;2023-07-29T07:46:57;94592.69;;;25.89;43.46
35892;BME280;21993;42.672;23.296;2023-07-29T07:49:22;94595.91;;;25.67;44.47
35892;BME280;21993;42.672;23.296;2023-07-29T07:51:48;94595.44;;;25.70;44.44
35892;BME280;21993;42.672;23.296;2023-07-29T07:54:13;94594.41;;;25.71;44.40
35892;BME280;21993;42.672;23.296;2023-07-29T07:56:38;94597.59;;;25.80;43.91
35892;BME280;21993;42.672;23.296;2023-07-29T07:59:04;94605.78;;;25.85;44.69
35892;BME280;21993;42.672;23.296;2023-07-29T08:01:37;94593.97;;;26.09;44.13
35892;BME280;21993;42.672;23.296;2023-07-29T08:04:02;94593.97;;;26.09;44.37
35892;BME280;21993;42.672;23.296;2023-07-29T08:06:28;94591.50;;;26.20;43.52
35892;BME280;21993;42.672;23.296;2023-07-29T08:08:53;94595.38;;;26.47;43.06
35892;BME280;21993;42.672;23.296;2023-07-29T08:11:19;94598.53;;;26.32;43.64
35892;BME280;21993;42.672;23.296;2023-07-29T08:13:46;94593.72;;;26.46;43.22
35892;BME280;21993;42.672;23.296;2023-07-29T08:16:12;94592.91;;;26.46;42.82
35892;BME280;21993;42.672;23.296;2023-07-29T08:18:38;94599.00;;;26.53;42.65
35892;BME280;21993;42.672;23.296;2023-07-29T08:21:03;94606.22;;;26.64;41.94
35892;BME280;21993;42.672;23.296;2023-07-29T08:23:35;94602.25;;;26.67;41.86
35892;BME280;21993;42.672;23.296;2023-07-29T08:26:03;94604.78;;;26.85;41.71
35892;BME280;21993;42.672;23.296;2023-07-29T08:28:37;94607.19;;;26.98;40.99
35892;BME280;21993;42.672;23.296;2023-07-29T08:31:03;94608.84;;;26.99;41.24
35892;BME280;21993;42.672;23.296;2023-07-29T08:33:29;94599.09;;;27.10;40.95
35892;BME280;21993;42.672;23.296;2023-07-29T08:35:54;94605.97;;;27.17;40.78
35892;BME280;21993;42.672;23.296;2023-07-29T08:38:20;94600.44;;;27.24;40.62
35892;BME280;21993;42.672;23.296;2023-07-29T08:43:29;94599.66;;;27.57;39.06
35892;BME280;21993;42.672;23.296;2023-07-29T08:46:01;94588.63;;;27.42;39.70
35892;BME280;21993;42.672;23.296;2023-07-29T08:48:40;94583.81;;;27.44;39.65
35892;BME280;21993;42.672;23.296;2023-07-29T08:51:07;94577.38;;;27.62;39.06
35892;BME280;21993;42.672;23.296;2023-07-29T08:53:33;94575.81;;;27.66;38.85
35892;BME280;21993;42.672;23.296;2023-07-29T08:55:59;94578.31;;;27.67;38.33
35892;BME280;21993;42.672;23.296;2023-07-29T08:58:26;94576.44;;;27.85;37.85
35892;BME280;21993;42.672;23.296;2023-07-29T09:00:52;94580.50;;;28.04;37.04
35892;BME280;21993;42.672;23.296;2023-07-29T09:03:17;94570.19;;;28.01;36.54
35892;BME280;21993;42.672;23.296;2023-07-29T09:05:43;94574.38;;;27.92;37.13
35892;BME280;21993;42.672;23.296;2023-07-29T09:08:09;94567.97;;;27.98;38.04
35892;BME280;21993;42.672;23.296;2023-07-29T09:10:36;94568.13;;;28.08;37.63
35892;BME280;21993;42.672;23.296;2023-07-29T09:13:03;94560.78;;;28.03;37.45
35892;BME280;21993;42.672;23.296;2023-07-29T09:15:33;94560.66;;;28.15;37.34
35892;BME280;21993;42.672;23.296;2023-07-29T09:18:17;94561.81;;;28.19;38.03
35892;BME280;21993;42.672;23.296;2023-07-29T09:20:44;94548.88;;;28.38;37.08
35892;BME280;21993;42.672;23.296;2023-07-29T09:23:11;94547.00;;;28.39;37.05
35892;BME280;21993;42.672;23.296;2023-07-29T09:25:36;94542.31;;;28.51;36.65
35892;BME280;21993;42.672;23.296;2023-07-29T09:28:08;94543.88;;;28.69;36.22
35892;BME280;21993;42.672;23.296;2023-07-29T09:30:35;94546.75;;;28.62;35.95
35892;BME280;21993;42.672;23.296;2023-07-29T09:33:00;94543.97;;;28.57;35.89
35892;BME280;21993;42.672;23.296;2023-07-29T09:35:28;94542.34;;;28.78;35.78
35892;BME280;21993;42.672;23.296;2023-07-29T09:37:53;94535.50;;;28.92;34.28
35892;BME280;21993;42.672;23.296;2023-07-29T09:40:19;94539.59;;;28.95;34.70
35892;BME280;21993;42.672;23.296;2023-07-29T09:42:51;94531.09;;;28.86;35.48
35892;BME280;21993;42.672;23.296;2023-07-29T09:47:46;94524.75;;;28.97;35.43
35892;BME280;21993;42.672;23.296;2023-07-29T09:50:12;94529.06;;;28.98;34.66
35892;BME280;21993;42.672;23.296;2023-07-29T09:52:37;94518.06;;;29.05;35.26
35892;BME280;21993;42.672;23.296;2023-07-29T09:55:03;94520.84;;;29.10;34.91
35892;BME280;21993;42.672;23.296;2023-07-29T09:57:29;94522.03;;;29.24;33.64
35892;BME280;21993;42.672;23.296;2023-07-29T09:59:55;94523.16;;;29.28;34.10
35892;BME280;21993;42.672;23.296;2023-07-29T10:02:22;94517.50;;;29.30;34.36
35892;BME280;21993;42.672;23.296;2023-07-29T10:04:47;94513.78;;;29.36;34.12
35892;BME280;21993;42.672;23.296;2023-07-29T10:07:14;94512.38;;;29.60;33.63
35892;BME280;21993;42.672;23.296;2023-07-29T10:09:41;94510.25;;;29.67;33.61
35892;BME280;21993;42.672;23.296;2023-07-29T10:12:07;94512.19;;;29.72;32.76
35892;BME280;21993;42.672;23.296;2023-07-29T10:14:34;94513.28;;;29.71;32.98
35892;BME280;21993;42.672;23.296;2023-07-29T10:17:00;94511.78;;;29.90;32.01
35892;BME280;21993;42.672;23.296;2023-07-29T10:19:26;94509.63;;;29.92;32.48
35892;BME280;21993;42.672;23.296;2023-07-29T10:21:53;94499.38;;;29.99;31.83
35892;BME280;21993;42.672;23.296;2023-07-29T10:24:24;94499.50;;;30.15;32.03
35892;BME280;21993;42.672;23.296;2023-07-29T10:26:57;94483.41;;;30.45;30.19
35892;BME280;21993;42.672;23.296;2023-07-29T10:29:23;94488.53;;;30.37;30.23
35892;BME280;21993;42.672;23.296;2023-07-29T10:31:52;94483.59;;;30.34;31.07
35892;BME280;21993;42.672;23.296;2023-07-29T10:34:19;94481.75;;;30.39;30.85
35892;BME280;21993;42.672;23.296;2023-07-29T10:36:46;94484.75;;;30.48;30.30
35892;BME280;21993;42.672;23.296;2023-07-29T10:39:12;94466.03;;;30.41;30.42
35892;BME280;21993;42.672;23.296;2023-07-29T10:47:27;94469.34;;;30.59;29.66
35892;BME280;21993;42.672;23.296;2023-07-29T10:49:55;94460.91;;;30.45;29.95
35892;BME280;21993;42.672;23.296;2023-07-29T10:55:02;94456.44;;;30.91;29.49
35892;BME280;21993;42.672;23.296;2023-07-29T10:57:37;94459.41;;;30.74;30.40
35892;BME280;21993;42.672;23.296;2023-07-29T11:00:04;94449.09;;;30.71;30.69
35892;BME280;21993;42.672;23.296;2023-07-29T11:02:32;94452.91;;;30.86;29.96
35892;BME280;21993;42.672;23.296;2023-07-29T11:04:58;94445.91;;;31.05;29.73
35892;BME280;21993;42.672;23.296;2023-07-29T11:07:27;94443.19;;;31.05;30.08
35892;BME280;21993;42.672;23.296;2023-07-29T11:17:34;94438.06;;;31.14;29.10
35892;BME280;21993;42.672;23.296;2023-07-29T11:20:01;94440.50;;;31.25;29.34
35892;BME280;21993;42.672;23.296;2023-07-29T11:22:28;94431.56;;;31.20;28.91
35892;BME280;21993;42.672;23.296;2023-07-29T11:24:54;94435.38;;;31.24;29.02
35892;BME280;21993;42.672;23.296;2023-07-29T11:27:19;94440.00;;;31.38;28.44
35892;BME280;21993;42.672;23.296;2023-07-29T11:29:44;94433.75;;;31.38;28.05
35892;BME280;21993;42.672;23.296;2023-07-29T11:32:10;94435.38;;;31.34;28.37
35892;BME280;21993;42.672;23.296;2023-07-29T11:34:35;94433.19;;;31.26;29.64
35892;BME280;21993;42.672;23.296;2023-07-29T11:37:01;94420.44;;;31.42;28.61
35892;BME280;21993;42.672;23.296;2023-07-29T11:39:27;94425.03;;;31.56;28.33
35892;BME280;21993;42.672;23.296;2023-07-29T11:41:52;94418.53;;;31.62;27.58
35892;BME280;21993;42.672;23.296;2023-07-29T11:44:18;94414.69;;;31.69;26.60
35892;BME280;21993;42.672;23.296;2023-07-29T11:46:43;94416.34;;;31.80;27.36
35892;BME280;21993;42.672;23.296;2023-07-29T11:49:09;94417.69;;;31.67;28.08
35892;BME280;21993;42.672;23.296;2023-07-29T11:51:36;94411.44;;;31.77;27.12
35892;BME280;21993;42.672;23.296;2023-07-29T11:54:02;94411.44;;;31.87;27.19
35892;BME280;21993;42.672;23.296;2023-07-29T11:56:29;94411.41;;;31.97;27.46
35892;BME280;21993;42.672;23.296;2023-07-29T11:58:55;94403.31;;;31.87;27.95
35892;BME280;21993;42.672;23.296;2023-07-29T12:01:22;94408.69;;;31.92;28.66
35892;BME280;21993;42.672;23.296;2023-07-29T12:03:48;94402.72;;;31.95;28.32
35892;BME280;21993;42.672;23.296;2023-07-29T12:06:15;94397.28;;;32.00;27.97
35892;BME280;21993;42.672;23.296;2023-07-29T12:08:41;94392.13;;;31.93;28.25
35892;BME280;21993;42.672;23.296;2023-07-29T12:11:08;94393.19;;;32.08;27.85
35892;BME280;21993;42.672;23.296;2023-07-29T12:13:33;94389.06;;;32.10;27.64
35892;BME280;21993;42.672;23.296;2023-07-29T12:16:05;94383.06;;;32.18;27.14
35892;BME280;21993;42.672;23.296;2023-07-29T12:18:31;94385.25;;;32.21;27.63
35892;BME280;21993;42.672;23.296;2023-07-29T12:20:57;94388.75;;;32.32;27.45
35892;BME280;21993;42.672;23.296;2023-07-29T12:23:26;94388.69;;;32.42;27.08
35892;BME280;21993;42.672;23.296;2023-07-29T12:25:57;94383.31;;;32.37;26.90
35892;BME280;21993;42.672;23.296;2023-07-29T12:28:23;94387.13;;;32.31;27.10
35892;BME280;21993;42.672;23.296;2023-07-29T12:30:56;94376.25;;;32.31;26.27
35892;BME280;21993;42.672;23.296;2023-07-29T12:33:33;94387.09;;;32.36;26.00
35892;BME280;21993;42.672;23.296;2023-07-29T12:35:59;94377.88;;;32.32;26.44
35892;BME280;21993;42.672;23.296;2023-07-29T12:38:28;94373.72;;;32.45;25.85
35892;BME280;21993;42.672;23.296;2023-07-29T12:40:54;94387.81;;;32.52;24.82
35892;BME280;21993;42.672;23.296;2023-07-29T12:43:19;94377.59;;;32.39;25.89
35892;BME280;21993;42.672;23.296;2023-07-29T12:45:45;94382.97;;;32.49;25.81
35892;BME280;21993;42.672;23.296;2023-07-29T12:48:11;94377.00;;;32.47;26.22
35892;BME280;21993;42.672;23.296;2023-07-29T12:50:40;94376.13;;;32.52;26.32
35892;BME280;21993;42.672;23.296;2023-07-29T12:53:07;94375.38;;;32.46;26.08
35892;BME280;21993;42.672;23.296;2023-07-29T12:55:33;94369.66;;;32.42;26.29
35892;BME280;21993;42.672;23.296;2023-07-29T12:57:58;94375.59;;;32.55;25.92
35892;BME280;21993;42.672;23.296;2023-07-29T13:00:24;94373.09;;;32.63;25.54
35892;BME280;21993;42.672;23.296;2023-07-29T13:02:50;94361.06;;;32.74;25.09
35892;BME280;21993;42.672;23.296;2023-07-29T13:05:16;94366.00;;;32.62;25.72
35892;BME280;21993;42.672;23.296;2023-07-29T13:07:42;94376.94;;;32.57;26.18
35892;BME280;21993;42.672;23.296;2023-07-29T13:10:12;94375.03;;;32.58;26.20
35892;BME280;21993;42.672;23.296;2023-07-29T13:12:38;94363.03;;;32.64;25.19
35892;BME280;21993;42.672;23.296;2023-07-29T13:15:03;94363.53;;;32.71;25.26
35892;BME280;21993;42.672;23.296;2023-07-29T13:17:29;94362.22;;;32.63;25.49
35892;BME280;21993;42.672;23.296;2023-07-29T13:19:54;94361.66;;;32.61;25.38